Time;durP1;ratioP1;P1;durP2;ratioP2;P2;SDS_P1;SDS_P2;PMS_P1;PMS_P2;Temp;Humidity;BMP_temperature;BMP_pressure;BME280_temperature;BME280_humidity;BME280_pressure;Samples;Min_cycle;Max_cycle;Signal;HPM_P1;HPM_P2
2022/07/25 00:01:28;;;;;;;7.43;3.92;;;23.20;91.60;;;;;;4973603;28;20038;-67
2022/07/25 00:03:54;;;;;;;7.68;3.42;;;23.20;91.70;;;;;;4973327;28;21325;-68
2022/07/25 00:06:20;;;;;;;8.02;3.55;;;23.10;91.70;;;;;;4974422;28;20031;-68
2022/07/25 00:08:45;;;;;;;5.75;3.25;;;23.10;91.80;;;;;;4973278;28;20461;-67
2022/07/25 00:11:11;;;;;;;10.70;4.13;;;23.20;91.80;;;;;;4975103;28;20098;-66
2022/07/25 00:13:36;;;;;;;8.02;4.18;;;23.10;91.80;;;;;;4974064;28;20038;-67
2022/07/25 00:16:02;;;;;;;10.50;4.00;;;23.20;91.80;;;;;;4974789;28;20027;-67
2022/07/25 00:18:28;;;;;;;9.90;4.68;;;23.10;92.00;;;;;;4974777;28;20031;-66
2022/07/25 00:20:53;;;;;;;7.50;4.03;;;23.10;92.00;;;;;;4973874;28;20565;-66
2022/07/25 00:23:19;;;;;;;7.55;4.03;;;23.10;92.40;;;;;;4974071;28;20507;-67
2022/07/25 00:25:45;;;;;;;8.70;4.85;;;23.00;92.30;;;;;;4973604;28;20557;-68
2022/07/25 00:28:10;;;;;;;5.38;3.90;;;23.00;92.30;;;;;;4973322;28;20027;-68
2022/07/25 00:30:36;;;;;;;6.28;3.30;;;23.00;92.40;;;;;;4974635;28;20030;-67
2022/07/25 00:33:01;;;;;;;5.43;3.58;;;23.00;92.40;;;;;;4974621;28;20037;-68
2022/07/25 00:35:27;;;;;;;5.57;3.47;;;23.10;92.40;;;;;;4974358;28;20318;-67
2022/07/25 00:37:52;;;;;;;6.25;3.45;;;23.10;92.30;;;;;;4974265;28;20433;-65
2022/07/25 00:40:18;;;;;;;9.80;3.45;;;23.10;92.00;;;;;;4974512;28;20041;-68
2022/07/25 00:42:43;;;;;;;7.50;3.40;;;23.10;92.00;;;;;;4974125;28;20037;-66
2022/07/25 00:45:09;;;;;;;10.43;4.00;;;23.20;92.00;;;;;;4974428;28;20034;-68
2022/07/25 00:47:35;;;;;;;7.57;4.18;;;23.20;92.10;;;;;;4974373;28;20388;-66
2022/07/25 00:50:00;;;;;;;7.72;4.45;;;23.20;92.10;;;;;;4974496;28;20110;-67
2022/07/25 00:52:26;;;;;;;8.63;4.32;;;23.20;92.10;;;;;;4974359;28;20362;-67
2022/07/25 00:54:52;;;;;;;8.95;4.28;;;23.30;92.00;;;;;;4974269;28;20061;-64
2022/07/25 00:57:19;;;;;;;7.47;3.60;;;23.30;91.90;;;;;;4973597;28;20562;-66
2022/07/25 00:59:45;;;;;;;6.07;3.47;;;23.30;91.90;;;;;;4973898;28;20104;-68
2022/07/25 01:02:10;;;;;;;7.05;4.10;;;23.30;91.80;;;;;;4973954;28;20058;-66
2022/07/25 01:04:36;;;;;;;8.15;4.22;;;23.30;91.90;;;;;;4974271;28;20035;-66
2022/07/25 01:07:01;;;;;;;7.32;4.22;;;23.30;91.90;;;;;;4973685;28;20019;-66
2022/07/25 01:09:27;;;;;;;10.30;4.30;;;23.40;92.10;;;;;;4974289;28;20031;-67
2022/07/25 01:11:53;;;;;;;11.77;5.97;;;23.40;92.20;;;;;;4973578;28;20441;-70
2022/07/25 01:14:18;;;;;;;8.35;4.53;;;23.40;92.40;;;;;;4973755;28;20037;-67
2022/07/25 01:16:44;;;;;;;6.47;3.97;;;23.40;92.50;;;;;;4973829;28;20042;-69
2022/07/25 01:19:09;;;;;;;5.95;3.67;;;23.40;92.50;;;;;;4974007;28;20077;-67
2022/07/25 01:21:38;;;;;;;8.95;3.78;;;23.30;92.40;;;;;;4973723;28;20118;-67
2022/07/25 01:24:04;;;;;;;6.97;3.35;;;23.40;92.40;;;;;;4973515;28;20030;-67
2022/07/25 01:26:30;;;;;;;8.75;4.03;;;23.40;92.40;;;;;;4973392;28;20078;-66
2022/07/25 01:28:56;;;;;;;8.75;3.33;;;23.30;92.50;;;;;;4973530;28;20105;-67
2022/07/25 01:31:22;;;;;;;7.32;3.92;;;23.30;92.50;;;;;;4973553;28;20113;-67
2022/07/25 01:33:47;;;;;;;8.93;3.83;;;23.30;92.70;;;;;;4973625;28;20034;-66
2022/07/25 01:36:13;;;;;;;8.13;4.10;;;23.20;92.80;;;;;;4973794;28;20051;-65
2022/07/25 01:38:39;;;;;;;8.20;3.75;;;23.20;92.90;;;;;;4973550;28;20110;-67
2022/07/25 01:41:05;;;;;;;5.43;3.80;;;23.20;92.90;;;;;;4973369;28;20030;-69
2022/07/25 01:43:31;;;;;;;8.95;4.22;;;23.30;93.00;;;;;;4973190;28;20023;-66
2022/07/25 01:45:57;;;;;;;5.82;3.40;;;23.30;93.00;;;;;;4972884;28;20051;-65
2022/07/25 01:48:22;;;;;;;6.10;3.78;;;23.20;93.00;;;;;;4973951;28;20030;-68
2022/07/25 01:50:48;;;;;;;8.18;5.03;;;23.20;92.90;;;;;;4974248;28;20041;-68
2022/07/25 01:53:13;;;;;;;6.10;4.03;;;23.20;93.00;;;;;;4973466;28;20457;-67
2022/07/25 01:55:39;;;;;;;9.35;3.88;;;23.20;93.40;;;;;;4973073;28;20018;-69
2022/07/25 01:58:05;;;;;;;7.28;3.92;;;23.20;93.20;;;;;;4975405;28;20054;-67
2022/07/25 02:00:30;;;;;;;7.82;4.07;;;23.20;93.70;;;;;;4979679;28;20069;-67
2022/07/25 02:05:40;;;;;;;7.63;3.92;;;23.10;93.80;;;;;;4979647;28;20025;-69
2022/07/25 02:08:06;;;;;;;7.10;3.53;;;23.10;94.00;;;;;;4996915;28;20026;-66
2022/07/25 02:10:32;;;;;;;8.82;3.75;;;23.10;94.20;;;;;;4999193;28;20467;-68
2022/07/25 02:12:59;;;;;;;7.47;3.70;;;23.10;94.50;;;;;;4998943;28;20041;-68
2022/07/25 02:15:24;;;;;;;6.75;3.63;;;23.00;94.90;;;;;;4998887;28;20037;-68
2022/07/25 02:17:50;;;;;;;8.15;4.18;;;23.00;95.30;;;;;;4981547;28;20023;-68
2022/07/25 02:20:16;;;;;;;9.88;4.20;;;23.00;95.40;;;;;;4979801;28;20038;-68
2022/07/25 02:22:41;;;;;;;9.63;4.32;;;23.00;95.40;;;;;;4979181;28;20026;-67
2022/07/25 02:25:07;;;;;;;8.15;4.20;;;23.00;95.50;;;;;;4979515;28;20023;-68
2022/07/25 02:27:32;;;;;;;6.90;4.22;;;23.00;95.60;;;;;;4979402;28;20457;-70
2022/07/25 02:29:58;;;;;;;8.35;4.03;;;23.00;95.70;;;;;;4979335;28;20449;-68
2022/07/25 02:32:24;;;;;;;8.30;4.45;;;23.00;95.70;;;;;;4979451;28;20031;-67
2022/07/25 02:34:49;;;;;;;5.60;4.05;;;22.90;95.70;;;;;;4979474;28;20361;-68
2022/07/25 02:37:15;;;;;;;7.63;4.28;;;22.90;95.80;;;;;;4979540;28;20074;-67
2022/07/25 02:39:40;;;;;;;7.30;4.38;;;22.90;95.90;;;;;;4979641;28;20085;-66
2022/07/25 02:42:06;;;;;;;6.82;4.22;;;22.90;95.90;;;;;;4979423;28;20034;-67
2022/07/25 02:44:32;;;;;;;7.70;4.82;;;22.90;95.90;;;;;;4979259;28;20019;-68
2022/07/25 02:46:57;;;;;;;8.85;4.70;;;22.90;96.10;;;;;;4979263;28;20043;-67
2022/07/25 02:49:23;;;;;;;9.63;4.70;;;22.80;96.20;;;;;;4979429;28;20049;-67
2022/07/25 02:51:48;;;;;;;8.68;4.47;;;22.70;96.40;;;;;;4979261;28;20026;-66
2022/07/25 02:54:14;;;;;;;10.27;5.75;;;22.60;96.50;;;;;;4979193;28;20117;-69
2022/07/25 02:56:39;;;;;;;7.50;4.40;;;22.60;96.40;;;;;;4979360;28;20444;-67
2022/07/25 02:59:05;;;;;;;8.48;4.60;;;22.60;96.60;;;;;;4977994;28;20026;-69
2022/07/25 03:01:32;;;;;;;10.35;5.15;;;22.50;96.80;;;;;;4979493;28;20058;-68
2022/07/25 03:03:57;;;;;;;9.88;5.00;;;22.50;96.90;;;;;;4979119;28;20059;-67
2022/07/25 03:06:24;;;;;;;10.95;5.40;;;22.50;97.00;;;;;;4979381;28;20065;-66
2022/07/25 03:08:49;;;;;;;12.20;5.30;;;22.40;97.10;;;;;;4979057;28;20058;-66
2022/07/25 03:11:15;;;;;;;11.95;6.03;;;22.40;97.40;;;;;;4975227;28;20121;-69
2022/07/25 03:13:45;;;;;;;9.82;5.03;;;22.30;97.90;;;;;;4976435;28;20027;-67
2022/07/25 03:16:11;;;;;;;12.25;5.80;;;22.20;98.20;;;;;;4976361;28;20015;-69
2022/07/25 03:18:36;;;;;;;13.10;5.57;;;22.20;98.60;;;;;;4976446;28;20081;-66
2022/07/25 03:21:02;;;;;;;10.85;5.78;;;22.10;98.80;;;;;;4975814;28;20026;-66
2022/07/25 03:23:29;;;;;;;11.88;5.40;;;22.10;99.00;;;;;;4976103;28;20460;-67
2022/07/25 03:25:55;;;;;;;9.52;5.22;;;22.10;99.20;;;;;;4976003;28;20049;-67
2022/07/25 03:28:21;;;;;;;9.98;5.22;;;22.10;99.30;;;;;;4975898;28;20102;-67
2022/07/25 03:30:46;;;;;;;10.32;5.10;;;22.10;99.40;;;;;;4976022;28;20026;-67
2022/07/25 03:33:12;;;;;;;10.68;5.95;;;22.00;99.40;;;;;;4974489;28;20045;-67
2022/07/25 03:35:37;;;;;;;12.38;5.25;;;22.00;99.40;;;;;;4975486;28;20019;-68
2022/07/25 03:38:03;;;;;;;10.90;4.90;;;22.00;99.30;;;;;;4975616;28;20449;-66
2022/07/25 03:40:30;;;;;;;8.25;4.38;;;21.90;99.30;;;;;;4975870;28;20034;-67
2022/07/25 03:42:56;;;;;;;6.88;3.83;;;21.90;99.10;;;;;;4975671;28;20043;-70
2022/07/25 03:45:21;;;;;;;11.52;5.75;;;21.90;99.00;;;;;;4975762;28;20109;-68
2022/07/25 03:47:47;;;;;;;11.02;4.38;;;21.80;99.00;;;;;;4975707;28;20473;-67
2022/07/25 03:50:13;;;;;;;6.55;4.05;;;21.90;99.10;;;;;;4975338;28;20019;-68
2022/07/25 03:52:38;;;;;;;11.25;4.65;;;21.90;98.90;;;;;;4975654;28;20077;-68
2022/07/25 03:55:08;;;;;;;9.77;5.22;;;21.90;98.80;;;;;;4975438;28;20031;-67
2022/07/25 03:57:34;;;;;;;9.60;5.30;;;21.90;98.70;;;;;;4974059;28;20033;-69
2022/07/25 04:00:00;;;;;;;8.75;4.53;;;21.90;98.70;;;;;;4975732;28;20034;-66
2022/07/25 04:02:26;;;;;;;9.00;4.30;;;21.90;98.70;;;;;;4975269;28;20045;-69
2022/07/25 04:04:52;;;;;;;9.52;4.70;;;21.90;98.70;;;;;;4975279;28;20404;-67
2022/07/25 04:07:18;;;;;;;13.15;5.60;;;21.90;98.70;;;;;;4975601;28;20038;-67
2022/07/25 04:09:43;;;;;;;9.90;4.82;;;21.80;98.70;;;;;;4975385;28;20027;-69
2022/07/25 04:12:09;;;;;;;14.55;6.45;;;21.80;98.90;;;;;;4975321;28;20098;-67
2022/07/25 04:14:35;;;;;;;18.67;6.07;;;21.80;99.00;;;;;;4974999;28;20082;-67
2022/07/25 04:17:00;;;;;;;20.08;6.72;;;21.80;99.20;;;;;;4975084;28;20022;-66
2022/07/25 04:19:26;;;;;;;20.27;7.15;;;21.80;99.50;;;;;;4974338;28;20030;-68
2022/07/25 04:21:51;;;;;;;13.20;5.75;;;21.80;99.90;;;;;;4974979;28;20457;-66
2022/07/25 04:24:17;;;;;;;12.60;5.05;;;21.80;99.90;;;;;;4975116;28;20031;-66
2022/07/25 04:26:42;;;;;;;11.32;4.63;;;21.80;99.90;;;;;;4974984;28;20377;-66
2022/07/25 04:29:08;;;;;;;15.10;4.97;;;21.80;99.90;;;;;;4974612;28;20069;-67
2022/07/25 04:31:33;;;;;;;13.77;5.18;;;21.80;99.90;;;;;;4974787;28;20062;-67
2022/07/25 04:33:59;;;;;;;21.23;6.22;;;21.80;99.90;;;;;;4974036;28;20153;-69
2022/07/25 04:36:25;;;;;;;16.95;5.82;;;21.80;99.90;;;;;;4974631;28;20023;-67
2022/07/25 04:38:51;;;;;;;10.60;3.53;;;21.80;99.90;;;;;;4974729;28;20349;-67
2022/07/25 04:41:17;;;;;;;9.38;3.78;;;21.80;99.90;;;;;;4973379;28;20113;-68
2022/07/25 04:43:43;;;;;;;8.20;3.95;;;21.90;99.90;;;;;;4973200;28;20528;-68
2022/07/25 04:46:08;;;;;;;6.85;3.40;;;21.90;99.90;;;;;;4973930;28;20181;-68
2022/07/25 04:48:34;;;;;;;26.20;7.20;;;22.00;99.90;;;;;;4974967;28;20033;-65
2022/07/25 04:51:00;;;;;;;18.00;5.80;;;22.10;99.90;;;;;;4977019;28;20488;-66
2022/07/25 04:53:26;;;;;;;15.10;5.40;;;22.20;99.90;;;;;;4976902;28;20406;-68
2022/07/25 04:55:51;;;;;;;15.23;5.10;;;22.20;99.90;;;;;;4974195;28;20098;-67
2022/07/25 04:58:18;;;;;;;12.77;4.20;;;22.30;99.90;;;;;;4974038;28;20430;-66
2022/07/25 05:00:43;;;;;;;8.60;3.72;;;22.40;99.90;;;;;;4974191;28;20026;-66
2022/07/25 05:03:09;;;;;;;7.50;3.50;;;22.40;99.90;;;;;;4974562;28;20039;-69
2022/07/25 05:05:35;;;;;;;9.35;3.55;;;22.50;99.90;;;;;;4974480;28;20027;-67
2022/07/25 05:08:01;;;;;;;9.88;3.00;;;22.60;99.90;;;;;;4974759;28;20031;-68
2022/07/25 05:10:28;;;;;;;3.95;3.05;;;22.70;99.90;;;;;;4974497;28;20038;-67
2022/07/25 05:12:54;;;;;;;5.07;3.05;;;22.70;99.90;;;;;;4973038;28;20094;-67
2022/07/25 05:15:20;;;;;;;5.45;2.85;;;22.70;99.90;;;;;;4974090;28;20408;-66
2022/07/25 05:17:45;;;;;;;2.80;2.20;;;22.80;99.90;;;;;;4974402;28;20054;-66
2022/07/25 05:20:12;;;;;;;4.80;2.30;;;22.80;99.90;;;;;;4973554;28;20054;-66
2022/07/25 05:22:37;;;;;;;2.70;1.67;;;22.80;99.90;;;;;;4972921;28;20504;-66
2022/07/25 05:25:06;;;;;;;3.25;2.17;;;22.80;99.90;;;;;;4972534;28;20118;-66
2022/07/25 05:27:31;;;;;;;4.00;1.98;;;22.90;99.90;;;;;;4973768;28;20039;-67
2022/07/25 05:29:57;;;;;;;3.15;2.05;;;22.90;99.90;;;;;;4973975;28;20074;-67
2022/07/25 05:32:23;;;;;;;3.17;2.20;;;23.00;99.90;;;;;;4973291;28;20110;-66
2022/07/25 05:34:49;;;;;;;5.15;2.00;;;23.00;99.90;;;;;;4973714;28;20019;-67
2022/07/25 05:37:15;;;;;;;5.68;1.75;;;23.00;99.90;;;;;;4974064;28;20093;-66
2022/07/25 05:39:40;;;;;;;3.42;2.13;;;23.10;99.90;;;;;;4973783;28;20057;-67
2022/07/25 05:42:06;;;;;;;4.40;2.00;;;23.20;99.90;;;;;;4973614;28;20467;-67
2022/07/25 05:44:32;;;;;;;5.85;1.90;;;23.10;99.90;;;;;;4973422;28;20061;-67
2022/07/25 05:46:57;;;;;;;3.53;1.73;;;23.20;99.90;;;;;;4971633;28;20200;-68
2022/07/25 05:49:23;;;;;;;5.68;1.83;;;23.20;99.90;;;;;;4972194;28;20027;-69
2022/07/25 05:51:49;;;;;;;4.75;1.67;;;23.30;99.90;;;;;;4972059;28;20058;-67
2022/07/25 05:54:14;;;;;;;6.63;1.90;;;23.30;99.90;;;;;;4972202;28;20026;-67
2022/07/25 05:56:40;;;;;;;5.28;1.98;;;23.30;99.90;;;;;;4972245;28;20027;-67
2022/07/25 05:59:05;;;;;;;2.38;1.60;;;23.10;99.90;;;;;;4972471;28;20034;-67
2022/07/25 06:01:31;;;;;;;2.65;1.77;;;23.00;99.90;;;;;;4972793;28;20050;-66
2022/07/25 06:03:57;;;;;;;5.35;2.00;;;22.90;99.90;;;;;;4974081;28;20106;-67
2022/07/25 06:06:22;;;;;;;5.05;2.03;;;22.80;99.90;;;;;;4973725;28;20030;-65
2022/07/25 06:08:48;;;;;;;4.93;2.15;;;22.70;99.90;;;;;;4971447;28;20110;-67
2022/07/25 06:11:13;;;;;;;5.82;2.42;;;22.60;99.90;;;;;;4973865;28;20029;-66
2022/07/25 06:13:39;;;;;;;5.57;2.00;;;22.50;99.90;;;;;;4972281;28;20043;-66
2022/07/25 06:16:05;;;;;;;7.70;2.05;;;22.40;99.90;;;;;;4973565;28;20330;-67
2022/07/25 06:18:30;;;;;;;7.40;2.47;;;22.30;99.90;;;;;;4973466;28;20054;-66
2022/07/25 06:20:56;;;;;;;8.13;2.15;;;22.20;99.90;;;;;;4973631;28;20454;-67
2022/07/25 06:23:21;;;;;;;5.28;2.17;;;22.20;99.90;;;;;;4972510;28;20031;-68
2022/07/25 06:25:47;;;;;;;6.80;2.22;;;22.20;99.90;;;;;;4971183;28;20449;-66
2022/07/25 06:28:13;;;;;;;8.95;2.45;;;22.10;99.90;;;;;;4973369;28;20066;-66
2022/07/25 06:30:45;;;;;;;10.90;2.58;;;22.10;99.90;;;;;;4972702;28;20054;-66
2022/07/25 06:33:11;;;;;;;12.73;2.50;;;22.00;99.90;;;;;;4973066;28;20038;-66
2022/07/25 06:35:37;;;;;;;13.00;2.55;;;21.90;99.90;;;;;;4973195;28;20035;-65
2022/07/25 06:38:03;;;;;;;9.25;2.30;;;21.90;99.90;;;;;;4973161;28;20034;-68
2022/07/25 06:40:29;;;;;;;11.90;3.08;;;21.80;99.90;;;;;;4973444;28;20397;-65
2022/07/25 06:42:55;;;;;;;9.95;2.45;;;21.90;99.90;;;;;;4972988;28;20069;-66
2022/07/25 06:45:20;;;;;;;9.90;2.90;;;22.00;99.90;;;;;;4976100;28;20422;-66
2022/07/25 06:47:46;;;;;;;8.55;2.65;;;22.10;99.90;;;;;;4976956;28;20077;-66
2022/07/25 06:50:14;;;;;;;10.73;2.30;;;22.20;99.90;;;;;;4976841;28;20027;-66
2022/07/25 06:52:40;;;;;;;10.48;2.45;;;22.30;99.90;;;;;;4976825;28;20480;-67
2022/07/25 06:55:07;;;;;;;13.10;2.83;;;22.30;99.90;;;;;;4976655;28;20023;-66
2022/07/25 06:57:32;;;;;;;10.63;2.58;;;22.40;99.90;;;;;;4977171;28;20102;-66
2022/07/25 06:59:58;;;;;;;16.05;2.88;;;22.40;99.90;;;;;;4976623;28;20456;-65
2022/07/25 07:02:23;;;;;;;12.23;2.65;;;22.50;99.90;;;;;;4976603;28;20030;-66
2022/07/25 07:04:49;;;;;;;11.32;2.95;;;22.50;99.90;;;;;;4976255;28;20023;-66
2022/07/25 07:07:15;;;;;;;11.43;1.95;;;22.60;99.90;;;;;;4976541;28;20081;-66
2022/07/25 07:09:41;;;;;;;14.20;2.70;;;22.80;99.90;;;;;;4975891;28;20459;-66
2022/07/25 07:12:08;;;;;;;12.07;2.60;;;22.70;99.90;;;;;;4976137;28;20027;-66
2022/07/25 07:14:33;;;;;;;11.38;2.55;;;22.80;99.90;;;;;;4976475;28;20078;-67
2022/07/25 07:16:59;;;;;;;9.05;2.35;;;22.80;99.90;;;;;;4976572;28;20627;-67
2022/07/25 07:19:25;;;;;;;6.88;2.45;;;22.80;99.90;;;;;;4976467;28;20404;-67
2022/07/25 07:21:51;;;;;;;12.10;2.30;;;22.80;99.90;;;;;;4976265;28;20023;-67
2022/07/25 07:24:17;;;;;;;12.50;2.33;;;22.80;99.90;;;;;;4976351;28;20022;-66
2022/07/25 07:26:44;;;;;;;10.38;2.10;;;22.90;99.90;;;;;;4974285;28;21679;-66
2022/07/25 07:29:09;;;;;;;6.40;2.13;;;23.00;99.90;;;;;;4975563;28;20038;-68
2022/07/25 07:31:35;;;;;;;8.82;2.30;;;23.00;99.90;;;;;;4976091;28;20445;-67
2022/07/25 07:34:01;;;;;;;8.50;2.10;;;23.20;99.90;;;;;;4975700;28;20035;-67
2022/07/25 07:36:27;;;;;;;8.90;2.38;;;23.50;99.90;;;;;;4975994;28;20027;-71
2022/07/25 07:38:53;;;;;;;12.32;2.00;;;23.70;99.90;;;;;;4976052;28;20078;-69
2022/07/25 07:41:18;;;;;;;11.80;2.33;;;23.80;99.90;;;;;;4975415;28;20030;-67
2022/07/25 07:43:44;;;;;;;7.63;1.92;;;23.90;99.90;;;;;;4976282;28;20026;-67
2022/07/25 07:46:10;;;;;;;10.52;2.35;;;24.00;99.90;;;;;;4975077;28;20129;-69
2022/07/25 07:48:36;;;;;;;8.77;2.00;;;24.00;99.90;;;;;;4975976;28;20033;-66
2022/07/25 07:51:01;;;;;;;10.95;1.85;;;23.90;99.90;;;;;;4975929;28;20081;-69
2022/07/25 07:56:13;;;;;;;7.22;1.92;;;24.00;99.90;;;;;;4974360;28;20105;-66
2022/07/25 07:58:39;;;;;;;13.98;2.25;;;24.00;99.90;;;;;;4976137;28;20054;-65
2022/07/25 08:01:05;;;;;;;8.80;1.77;;;23.90;99.90;;;;;;4975503;28;20073;-65
2022/07/25 08:03:31;;;;;;;10.02;2.40;;;24.00;99.90;;;;;;4975735;28;20042;-65
2022/07/25 08:05:57;;;;;;;8.15;1.95;;;24.00;99.90;;;;;;4975842;28;20026;-66
2022/07/25 08:08:22;;;;;;;13.70;3.67;;;24.00;99.90;;;;;;4975915;28;20019;-66
2022/07/25 08:10:49;;;;;;;6.07;2.17;;;24.20;99.90;;;;;;4975172;28;20106;-67
2022/07/25 08:13:21;;;;;;;10.63;2.15;;;24.40;99.90;;;;;;4976688;28;20429;-67
2022/07/25 08:15:52;;;;;;;10.93;2.13;;;24.60;99.90;;;;;;4977289;28;20015;-67
2022/07/25 08:18:18;;;;;;;6.03;1.90;;;25.10;99.90;;;;;;4975478;28;20027;-69
2022/07/25 08:20:48;;;;;;;6.43;1.50;;;25.60;99.90;;;;;;4975420;28;20030;-66
2022/07/25 08:23:14;;;;;;;8.98;1.90;;;26.30;99.90;;;;;;4975369;28;20031;-66
2022/07/25 08:25:40;;;;;;;8.18;1.90;;;26.70;99.90;;;;;;4975244;28;20038;-65
2022/07/25 08:28:06;;;;;;;8.82;2.63;;;27.30;99.50;;;;;;4974945;28;20023;-66
2022/07/25 08:30:33;;;;;;;11.57;2.13;;;28.00;97.50;;;;;;4975178;28;20126;-67
2022/07/25 08:33:03;;;;;;;6.47;2.00;;;28.00;97.50;;;;;;4974886;28;20043;-67
2022/07/25 08:35:30;;;;;;;8.27;2.00;;;27.70;97.80;;;;;;4975179;28;20026;-67
2022/07/25 08:37:57;;;;;;;6.88;1.65;;;27.50;98.20;;;;;;4975239;28;20027;-66
2022/07/25 08:40:24;;;;;;;6.95;1.70;;;27.40;98.50;;;;;;4975078;28;20026;-66
2022/07/25 08:42:50;;;;;;;10.32;2.40;;;27.60;98.00;;;;;;4974739;28;20484;-70
2022/07/25 08:45:18;;;;;;;10.00;1.95;;;27.60;97.70;;;;;;4975333;28;20061;-67
2022/07/25 08:47:45;;;;;;;9.27;2.58;;;27.50;97.90;;;;;;4975054;28;20057;-68
2022/07/25 08:50:14;;;;;;;10.70;2.22;;;27.20;98.40;;;;;;4974930;28;20033;-67
2022/07/25 08:52:42;;;;;;;6.95;2.17;;;26.90;98.70;;;;;;4973510;28;20515;-69
2022/07/25 08:55:11;;;;;;;9.52;2.33;;;26.80;98.90;;;;;;4974715;28;20054;-68
2022/07/25 08:57:40;;;;;;;9.48;2.20;;;27.00;98.60;;;;;;4974612;28;20050;-68
2022/07/25 09:00:06;;;;;;;6.78;1.85;;;27.60;97.80;;;;;;4974677;28;20019;-68
2022/07/25 09:02:32;;;;;;;10.18;2.67;;;27.60;97.10;;;;;;4974542;28;20035;-67
2022/07/25 09:04:58;;;;;;;9.07;2.28;;;27.20;98.00;;;;;;4974660;28;20030;-68
2022/07/25 09:07:36;;;;;;;11.00;2.38;;;26.80;98.10;;;;;;4973906;28;20019;-69
2022/07/25 09:10:16;;;;;;;8.05;2.10;;;26.40;98.80;;;;;;4973164;28;20070;-66
2022/07/25 09:13:01;;;;;;;7.88;2.20;;;26.20;99.10;;;;;;4974554;28;20030;-68
2022/07/25 09:15:32;;;;;;;9.90;2.25;;;25.90;99.40;;;;;;4974520;28;20019;-67
2022/07/25 09:18:04;;;;;;;8.20;2.40;;;25.70;99.90;;;;;;4973141;28;20055;-68
2022/07/25 09:20:52;;;;;;;10.20;2.30;;;25.70;99.90;;;;;;4972896;28;20026;-66
2022/07/25 09:23:33;;;;;;;9.60;2.25;;;26.00;99.90;;;;;;4973868;28;20445;-68
2022/07/25 09:26:10;;;;;;;10.07;2.83;;;26.30;99.20;;;;;;4974067;28;20030;-67
2022/07/25 09:28:50;;;;;;;11.25;2.70;;;26.20;99.30;;;;;;4974231;28;20039;-69
2022/07/25 09:31:17;;;;;;;9.32;2.47;;;26.10;99.50;;;;;;4989205;28;20028;-67
2022/07/25 09:33:59;;;;;;;11.80;2.40;;;26.10;99.40;;;;;;4987276;28;20045;-70
2022/07/25 09:36:24;;;;;;;12.73;3.03;;;25.90;99.40;;;;;;4986109;28;20072;-67
2022/07/25 09:39:01;;;;;;;14.85;3.22;;;25.70;99.90;;;;;;4988089;28;20380;-65
2022/07/25 09:41:40;;;;;;;5.88;2.38;;;25.70;99.90;;;;;;4987297;28;20018;-67
2022/07/25 09:44:16;;;;;;;11.10;2.50;;;26.40;99.10;;;;;;4991034;28;20417;-67
2022/07/25 09:46:42;;;;;;;15.68;3.10;;;26.90;98.20;;;;;;4990185;28;20046;-68
2022/07/25 09:49:08;;;;;;;16.75;2.92;;;27.00;97.80;;;;;;4990801;28;20110;-70
2022/07/25 09:51:34;;;;;;;8.98;2.60;;;27.00;97.90;;;;;;4990163;28;20049;-67
2022/07/25 09:54:02;;;;;;;10.40;2.22;;;27.20;97.30;;;;;;4988407;28;20965;-67
2022/07/25 09:56:27;;;;;;;11.10;2.85;;;27.10;97.70;;;;;;4983070;28;20105;-67
2022/07/25 09:58:53;;;;;;;14.35;2.80;;;27.30;97.30;;;;;;4972839;28;20449;-67
2022/07/25 10:01:24;;;;;;;13.00;3.28;;;27.70;97.00;;;;;;4973725;28;20074;-68
2022/07/25 10:04:11;;;;;;;8.77;2.40;;;28.10;96.00;;;;;;4973847;28;20066;-67
2022/07/25 10:06:48;;;;;;;13.68;2.88;;;28.10;95.80;;;;;;4973779;28;20105;-67
2022/07/25 10:09:15;;;;;;;9.80;2.53;;;27.80;95.90;;;;;;4973935;28;20019;-67
2022/07/25 10:12:05;;;;;;;13.35;2.40;;;27.40;96.30;;;;;;4973408;28;20066;-68
2022/07/25 10:14:32;;;;;;;11.70;2.60;;;27.00;96.80;;;;;;4973413;28;20042;-67
2022/07/25 10:16:58;;;;;;;12.55;2.90;;;26.90;97.00;;;;;;4970600;28;20015;-68
2022/07/25 10:19:42;;;;;;;15.73;2.92;;;26.40;97.80;;;;;;4974551;28;20030;-67
2022/07/25 10:22:08;;;;;;;12.77;3.10;;;26.00;98.50;;;;;;4977482;28;20035;-66
2022/07/25 10:24:37;;;;;;;9.85;2.85;;;25.80;98.50;;;;;;4976225;28;20042;-66
2022/07/25 10:27:11;;;;;;;10.30;2.90;;;25.50;98.80;;;;;;4976807;28;20019;-67
2022/07/25 10:29:39;;;;;;;10.00;2.85;;;25.40;99.30;;;;;;4977244;28;20031;-67
2022/07/25 10:32:06;;;;;;;10.07;2.80;;;25.30;99.60;;;;;;4977551;28;20112;-67
2022/07/25 10:34:33;;;;;;;14.23;3.47;;;25.40;99.70;;;;;;4977071;28;20445;-67
2022/07/25 10:37:13;;;;;;;11.57;3.30;;;25.10;99.70;;;;;;4977415;28;20396;-69
2022/07/25 10:39:43;;;;;;;14.93;3.03;;;24.90;99.90;;;;;;4977478;28;20102;-67
2022/07/25 10:42:15;;;;;;;10.00;2.90;;;24.90;99.90;;;;;;4976458;28;20110;-68
2022/07/25 10:44:47;;;;;;;11.00;2.78;;;25.00;99.90;;;;;;4977005;28;20041;-69
2022/07/25 10:47:13;;;;;;;13.07;3.03;;;25.50;99.40;;;;;;4976897;28;20436;-66
2022/07/25 10:49:41;;;;;;;11.70;3.30;;;26.10;98.80;;;;;;4977178;28;20027;-66
2022/07/25 10:52:14;;;;;;;9.18;2.80;;;26.50;97.70;;;;;;4977217;28;20062;-68
2022/07/25 10:54:40;;;;;;;18.38;3.65;;;26.60;97.10;;;;;;4976865;28;20368;-67
2022/07/25 10:57:13;;;;;;;10.90;3.15;;;26.50;97.40;;;;;;4976811;28;20023;-70
2022/07/25 10:59:40;;;;;;;9.70;3.63;;;26.40;97.40;;;;;;4976353;28;20018;-67
2022/07/25 11:02:08;;;;;;;15.63;3.30;;;26.60;97.40;;;;;;4976625;28;20453;-67
2022/07/25 11:04:35;;;;;;;12.27;3.13;;;26.70;97.10;;;;;;4975973;28;20464;-68
2022/07/25 11:07:15;;;;;;;10.60;3.05;;;27.00;96.70;;;;;;4975208;28;20054;-67
2022/07/25 11:09:42;;;;;;;12.48;2.85;;;27.40;95.80;;;;;;4975844;28;20053;-67
2022/07/25 11:12:08;;;;;;;8.57;2.55;;;28.00;94.30;;;;;;4975889;28;20032;-66
2022/07/25 11:14:40;;;;;;;11.63;3.58;;;28.60;93.50;;;;;;4976417;28;20026;-67
2022/07/25 11:17:23;;;;;;;16.80;3.25;;;28.70;93.50;;;;;;4976445;28;20031;-67
2022/07/25 11:19:59;;;;;;;15.25;3.47;;;28.90;92.90;;;;;;4976319;28;20027;-69
2022/07/25 11:22:26;;;;;;;10.07;3.08;;;29.40;93.00;;;;;;4976262;28;20050;-67
2022/07/25 11:24:51;;;;;;;13.63;3.17;;;29.80;92.20;;;;;;4975230;28;20449;-67
2022/07/25 11:27:27;;;;;;;12.25;2.60;;;29.70;91.70;;;;;;4976503;28;20528;-68
2022/07/25 11:30:08;;;;;;;9.13;2.25;;;29.50;91.60;;;;;;4976247;28;20023;-67
2022/07/25 11:32:42;;;;;;;9.88;2.72;;;28.80;92.90;;;;;;4975485;28;20483;-67
2022/07/25 11:35:09;;;;;;;12.35;2.75;;;28.40;93.40;;;;;;4976272;28;20030;-67
2022/07/25 11:37:37;;;;;;;13.32;3.03;;;27.90;94.20;;;;;;4976323;28;20027;-68
2022/07/25 11:40:04;;;;;;;18.45;3.65;;;27.40;94.90;;;;;;4976204;28;20022;-67
2022/07/25 11:42:50;;;;;;;11.30;2.78;;;26.90;95.70;;;;;;4976222;28;20059;-67
2022/07/25 11:45:29;;;;;;;12.82;3.28;;;26.70;96.10;;;;;;4975896;28;20457;-69
2022/07/25 11:48:10;;;;;;;16.13;4.35;;;26.50;96.10;;;;;;4976151;28;20492;-66
2022/07/25 11:50:39;;;;;;;13.07;3.65;;;26.40;96.20;;;;;;4976341;28;20031;-67
2022/07/25 11:53:10;;;;;;;16.92;3.17;;;26.40;96.10;;;;;;4975873;28;20534;-70
2022/07/25 11:55:41;;;;;;;11.82;3.38;;;26.30;95.80;;;;;;4976077;28;20038;-69
2022/07/25 11:58:08;;;;;;;14.63;3.50;;;26.30;96.20;;;;;;4975843;28;20115;-68
2022/07/25 12:00:45;;;;;;;15.30;3.25;;;26.10;96.20;;;;;;4975877;28;20093;-66
2022/07/25 12:03:13;;;;;;;17.33;4.57;;;26.30;95.70;;;;;;4975869;28;20022;-68
2022/07/25 12:05:40;;;;;;;12.27;4.22;;;26.50;95.00;;;;;;4975906;28;20019;-69
2022/07/25 12:08:14;;;;;;;14.23;3.78;;;26.60;95.60;;;;;;4975555;28;20033;-68
2022/07/25 12:10:42;;;;;;;9.70;3.30;;;27.10;95.20;;;;;;4975482;28;20473;-68
2022/07/25 12:13:09;;;;;;;14.98;4.03;;;27.30;93.60;;;;;;4975533;28;20041;-68
2022/07/25 12:15:39;;;;;;;7.40;2.10;;;27.40;93.60;;;;;;4975227;28;20397;-68
2022/07/25 12:18:08;;;;;;;14.68;3.70;;;27.50;93.00;;;;;;4974171;28;20457;-67
2022/07/25 12:20:37;;;;;;;14.45;3.17;;;27.90;93.20;;;;;;4973876;28;20516;-69
2022/07/25 12:23:05;;;;;;;10.32;2.90;;;28.60;92.10;;;;;;4975306;28;20059;-67
2022/07/25 12:25:32;;;;;;;10.32;2.83;;;28.70;91.90;;;;;;4975279;28;20038;-70
2022/07/25 12:27:59;;;;;;;9.35;2.47;;;28.40;92.40;;;;;;4975219;28;20061;-71
2022/07/25 12:30:26;;;;;;;12.13;3.42;;;28.10;92.80;;;;;;4975386;28;20495;-66
2022/07/25 12:32:52;;;;;;;8.32;2.88;;;27.70;93.50;;;;;;4975376;28;20062;-68
2022/07/25 12:35:17;;;;;;;15.98;2.70;;;27.30;93.60;;;;;;4975181;28;20057;-67
2022/07/25 12:37:43;;;;;;;9.02;2.60;;;27.10;93.90;;;;;;4974898;28;20376;-66
2022/07/25 12:40:10;;;;;;;10.35;2.78;;;27.00;93.10;;;;;;4975087;28;20035;-70
2022/07/25 12:42:36;;;;;;;16.75;3.03;;;26.80;93.80;;;;;;4975117;28;20027;-68
2022/07/25 12:45:03;;;;;;;11.93;3.25;;;26.80;94.10;;;;;;4974688;28;20029;-67
2022/07/25 12:47:28;;;;;;;16.67;3.50;;;27.10;93.90;;;;;;4975044;28;20074;-66
2022/07/25 12:49:54;;;;;;;14.90;3.05;;;26.90;94.20;;;;;;4975199;28;20031;-70